sensor_id;sensor_type;location;lat;lon;timestamp;P1;durP1;ratioP1;P2;durP2;ratioP2
46781;SDS011;32541;46.298;11.506;2023-06-22T00:01:54;15.38;;;8.73;;
46781;SDS011;32541;46.298;11.506;2023-06-22T00:04:19;17.48;;;8.82;;
46781;SDS011;32541;46.298;11.506;2023-06-22T00:06:44;14.40;;;8.30;;
46781;SDS011;32541;46.298;11.506;2023-06-22T00:09:10;16.60;;;8.80;;
46781;SDS011;32541;46.298;11.506;2023-06-22T00:11:36;15.23;;;9.88;;
46781;SDS011;32541;46.298;11.506;2023-06-22T00:14:02;14.35;;;8.48;;
46781;SDS011;32541;46.298;11.506;2023-06-22T00:16:27;15.25;;;8.77;;
46781;SDS011;32541;46.298;11.506;2023-06-22T00:18:53;14.88;;;9.55;;
46781;SDS011;32541;46.298;11.506;2023-06-22T00:21:18;11.90;;;8.32;;
46781;SDS011;32541;46.298;11.506;2023-06-22T00:23:45;14.75;;;9.55;;
46781;SDS011;32541;46.298;11.506;2023-06-22T00:26:12;18.25;;;9.10;;
46781;SDS011;32541;46.298;11.506;2023-06-22T00:28:38;19.08;;;8.77;;
46781;SDS011;32541;46.298;11.506;2023-06-22T00:31:03;14.85;;;9.48;;
46781;SDS011;32541;46.298;11.506;2023-06-22T00:33:28;16.25;;;8.82;;
46781;SDS011;32541;46.298;11.506;2023-06-22T00:35:54;13.00;;;8.27;;
46781;SDS011;32541;46.298;11.506;2023-06-22T00:38:19;11.13;;;7.70;;
46781;SDS011;32541;46.298;11.506;2023-06-22T00:40:45;17.35;;;8.80;;
46781;SDS011;32541;46.298;11.506;2023-06-22T00:43:11;19.30;;;8.77;;
46781;SDS011;32541;46.298;11.506;2023-06-22T00:45:36;16.75;;;8.95;;
46781;SDS011;32541;46.298;11.506;2023-06-22T00:48:02;15.68;;;8.65;;
46781;SDS011;32541;46.298;11.506;2023-06-22T00:50:34;15.25;;;8.82;;
46781;SDS011;32541;46.298;11.506;2023-06-22T00:53:07;18.58;;;9.68;;
46781;SDS011;32541;46.298;11.506;2023-06-22T00:55:38;16.70;;;9.10;;
46781;SDS011;32541;46.298;11.506;2023-06-22T00:58:08;16.65;;;9.02;;
46781;SDS011;32541;46.298;11.506;2023-06-22T01:00:35;14.75;;;8.48;;
46781;SDS011;32541;46.298;11.506;2023-06-22T01:03:01;12.48;;;8.80;;
46781;SDS011;32541;46.298;11.506;2023-06-22T01:05:27;16.08;;;8.75;;
46781;SDS011;32541;46.298;11.506;2023-06-22T01:10:44;16.70;;;9.35;;
46781;SDS011;32541;46.298;11.506;2023-06-22T01:16:23;17.75;;;8.23;;
46781;SDS011;32541;46.298;11.506;2023-06-22T01:18:54;17.38;;;8.20;;
46781;SDS011;32541;46.298;11.506;2023-06-22T01:21:22;20.08;;;9.38;;
46781;SDS011;32541;46.298;11.506;2023-06-22T01:23:56;13.75;;;8.35;;
46781;SDS011;32541;46.298;11.506;2023-06-22T01:29:10;19.85;;;9.30;;
46781;SDS011;32541;46.298;11.506;2023-06-22T01:31:38;17.20;;;7.63;;
46781;SDS011;32541;46.298;11.506;2023-06-22T01:34:06;13.73;;;8.15;;
46781;SDS011;32541;46.298;11.506;2023-06-22T01:36:33;16.48;;;8.75;;
46781;SDS011;32541;46.298;11.506;2023-06-22T01:39:00;20.58;;;10.30;;
46781;SDS011;32541;46.298;11.506;2023-06-22T01:41:28;16.45;;;8.35;;
46781;SDS011;32541;46.298;11.506;2023-06-22T01:43:55;17.83;;;8.20;;
46781;SDS011;32541;46.298;11.506;2023-06-22T01:46:21;19.10;;;8.43;;
46781;SDS011;32541;46.298;11.506;2023-06-22T01:48:47;19.42;;;9.15;;
46781;SDS011;32541;46.298;11.506;2023-06-22T01:51:13;15.57;;;8.10;;
46781;SDS011;32541;46.298;11.506;2023-06-22T01:53:39;14.75;;;8.45;;
46781;SDS011;32541;46.298;11.506;2023-06-22T01:56:05;18.80;;;9.38;;
46781;SDS011;32541;46.298;11.506;2023-06-22T01:58:31;19.23;;;8.55;;
46781;SDS011;32541;46.298;11.506;2023-06-22T02:01:00;21.35;;;9.57;;
46781;SDS011;32541;46.298;11.506;2023-06-22T02:03:44;18.45;;;9.30;;
46781;SDS011;32541;46.298;11.506;2023-06-22T02:06:17;14.80;;;8.48;;
46781;SDS011;32541;46.298;11.506;2023-06-22T02:08:49;20.73;;;9.13;;
46781;SDS011;32541;46.298;11.506;2023-06-22T02:11:19;16.85;;;9.38;;
46781;SDS011;32541;46.298;11.506;2023-06-22T02:13:46;15.18;;;8.77;;
46781;SDS011;32541;46.298;11.506;2023-06-22T02:16:13;18.33;;;9.32;;
46781;SDS011;32541;46.298;11.506;2023-06-22T02:18:47;17.25;;;9.05;;
46781;SDS011;32541;46.298;11.506;2023-06-22T02:21:15;15.60;;;8.15;;
46781;SDS011;32541;46.298;11.506;2023-06-22T02:23:41;17.75;;;8.68;;
46781;SDS011;32541;46.298;11.506;2023-06-22T02:26:06;27.77;;;9.10;;
46781;SDS011;32541;46.298;11.506;2023-06-22T02:28:32;18.25;;;8.50;;
46781;SDS011;32541;46.298;11.506;2023-06-22T02:30:58;15.55;;;8.18;;
46781;SDS011;32541;46.298;11.506;2023-06-22T02:33:23;17.58;;;8.27;;
46781;SDS011;32541;46.298;11.506;2023-06-22T02:35:48;16.02;;;8.18;;
46781;SDS011;32541;46.298;11.506;2023-06-22T02:38:14;17.77;;;8.35;;
46781;SDS011;32541;46.298;11.506;2023-06-22T02:40:40;13.95;;;8.35;;
46781;SDS011;32541;46.298;11.506;2023-06-22T02:43:05;22.60;;;8.93;;
46781;SDS011;32541;46.298;11.506;2023-06-22T02:45:31;14.35;;;8.80;;
46781;SDS011;32541;46.298;11.506;2023-06-22T02:47:56;16.15;;;8.85;;
46781;SDS011;32541;46.298;11.506;2023-06-22T02:50:22;15.75;;;8.25;;
46781;SDS011;32541;46.298;11.506;2023-06-22T02:52:48;15.98;;;8.57;;
46781;SDS011;32541;46.298;11.506;2023-06-22T02:55:13;17.70;;;8.50;;
46781;SDS011;32541;46.298;11.506;2023-06-22T02:57:38;14.70;;;7.70;;
46781;SDS011;32541;46.298;11.506;2023-06-22T03:00:08;14.70;;;7.82;;
46781;SDS011;32541;46.298;11.506;2023-06-22T03:02:43;16.42;;;8.43;;
46781;SDS011;32541;46.298;11.506;2023-06-22T03:05:09;23.40;;;9.50;;
46781;SDS011;32541;46.298;11.506;2023-06-22T03:07:38;20.05;;;9.25;;
46781;SDS011;32541;46.298;11.506;2023-06-22T03:10:10;13.85;;;8.10;;
46781;SDS011;32541;46.298;11.506;2023-06-22T03:12:37;22.08;;;9.00;;
46781;SDS011;32541;46.298;11.506;2023-06-22T03:15:04;16.35;;;8.38;;
46781;SDS011;32541;46.298;11.506;2023-06-22T03:17:30;15.88;;;8.38;;
46781;SDS011;32541;46.298;11.506;2023-06-22T03:19:55;21.23;;;8.75;;
46781;SDS011;32541;46.298;11.506;2023-06-22T03:22:21;17.70;;;8.10;;
46781;SDS011;32541;46.298;11.506;2023-06-22T03:24:46;18.67;;;7.47;;
46781;SDS011;32541;46.298;11.506;2023-06-22T03:27:11;16.17;;;7.75;;
46781;SDS011;32541;46.298;11.506;2023-06-22T03:29:38;19.02;;;8.68;;
46781;SDS011;32541;46.298;11.506;2023-06-22T03:32:03;14.32;;;7.60;;
46781;SDS011;32541;46.298;11.506;2023-06-22T03:34:30;14.88;;;8.45;;
46781;SDS011;32541;46.298;11.506;2023-06-22T03:36:59;13.30;;;8.45;;
46781;SDS011;32541;46.298;11.506;2023-06-22T03:39:24;15.23;;;8.00;;
46781;SDS011;32541;46.298;11.506;2023-06-22T03:41:50;17.23;;;7.65;;
46781;SDS011;32541;46.298;11.506;2023-06-22T03:44:15;14.88;;;8.50;;
46781;SDS011;32541;46.298;11.506;2023-06-22T03:46:40;20.15;;;8.85;;
46781;SDS011;32541;46.298;11.506;2023-06-22T03:49:06;19.60;;;9.05;;
46781;SDS011;32541;46.298;11.506;2023-06-22T03:51:32;19.30;;;8.88;;
46781;SDS011;32541;46.298;11.506;2023-06-22T03:53:57;20.02;;;9.00;;
46781;SDS011;32541;46.298;11.506;2023-06-22T03:56:23;15.15;;;8.25;;
46781;SDS011;32541;46.298;11.506;2023-06-22T03:58:48;19.15;;;8.27;;
46781;SDS011;32541;46.298;11.506;2023-06-22T04:01:14;24.80;;;13.45;;
46781;SDS011;32541;46.298;11.506;2023-06-22T04:03:42;18.38;;;10.27;;
46781;SDS011;32541;46.298;11.506;2023-06-22T04:06:07;25.40;;;9.27;;
46781;SDS011;32541;46.298;11.506;2023-06-22T04:08:33;19.08;;;8.70;;
46781;SDS011;32541;46.298;11.506;2023-06-22T04:10:58;20.15;;;9.90;;
46781;SDS011;32541;46.298;11.506;2023-06-22T04:13:23;20.70;;;9.48;;
46781;SDS011;32541;46.298;11.506;2023-06-22T04:15:49;19.45;;;9.35;;
46781;SDS011;32541;46.298;11.506;2023-06-22T04:18:14;19.90;;;11.65;;
46781;SDS011;32541;46.298;11.506;2023-06-22T04:20:40;19.67;;;9.70;;
46781;SDS011;32541;46.298;11.506;2023-06-22T04:23:05;16.35;;;8.32;;
46781;SDS011;32541;46.298;11.506;2023-06-22T04:25:30;20.02;;;9.57;;
46781;SDS011;32541;46.298;11.506;2023-06-22T04:27:56;16.30;;;7.75;;
46781;SDS011;32541;46.298;11.506;2023-06-22T04:30:21;17.88;;;7.97;;
46781;SDS011;32541;46.298;11.506;2023-06-22T04:32:47;16.85;;;7.63;;
46781;SDS011;32541;46.298;11.506;2023-06-22T04:35:21;18.52;;;8.55;;
46781;SDS011;32541;46.298;11.506;2023-06-22T04:37:47;19.75;;;7.85;;
46781;SDS011;32541;46.298;11.506;2023-06-22T04:40:14;16.48;;;8.07;;
46781;SDS011;32541;46.298;11.506;2023-06-22T04:42:40;20.67;;;7.38;;
46781;SDS011;32541;46.298;11.506;2023-06-22T04:45:07;16.38;;;7.10;;
46781;SDS011;32541;46.298;11.506;2023-06-22T04:47:34;12.55;;;7.25;;
46781;SDS011;32541;46.298;11.506;2023-06-22T04:49:59;21.85;;;8.88;;
46781;SDS011;32541;46.298;11.506;2023-06-22T04:52:30;14.45;;;8.40;;
46781;SDS011;32541;46.298;11.506;2023-06-22T04:54:56;20.92;;;8.82;;
46781;SDS011;32541;46.298;11.506;2023-06-22T04:57:22;18.50;;;8.63;;
46781;SDS011;32541;46.298;11.506;2023-06-22T05:02:20;16.98;;;8.50;;
46781;SDS011;32541;46.298;11.506;2023-06-22T05:04:46;18.13;;;8.55;;
46781;SDS011;32541;46.298;11.506;2023-06-22T05:07:16;14.55;;;9.05;;
46781;SDS011;32541;46.298;11.506;2023-06-22T05:09:41;16.52;;;9.90;;
46781;SDS011;32541;46.298;11.506;2023-06-22T05:12:07;29.13;;;17.52;;
46781;SDS011;32541;46.298;11.506;2023-06-22T05:14:32;47.97;;;29.05;;
46781;SDS011;32541;46.298;11.506;2023-06-22T05:16:58;25.00;;;14.15;;
46781;SDS011;32541;46.298;11.506;2023-06-22T05:19:23;16.55;;;9.90;;
46781;SDS011;32541;46.298;11.506;2023-06-22T05:21:50;19.98;;;9.43;;
46781;SDS011;32541;46.298;11.506;2023-06-22T05:24:15;18.30;;;9.05;;
46781;SDS011;32541;46.298;11.506;2023-06-22T05:26:40;21.15;;;9.10;;
46781;SDS011;32541;46.298;11.506;2023-06-22T05:29:06;21.95;;;10.45;;
46781;SDS011;32541;46.298;11.506;2023-06-22T05:31:31;17.92;;;8.68;;
46781;SDS011;32541;46.298;11.506;2023-06-22T05:33:57;20.88;;;9.77;;
46781;SDS011;32541;46.298;11.506;2023-06-22T05:36:22;20.58;;;9.10;;
46781;SDS011;32541;46.298;11.506;2023-06-22T05:38:51;19.98;;;9.60;;
46781;SDS011;32541;46.298;11.506;2023-06-22T05:41:17;14.68;;;8.65;;
46781;SDS011;32541;46.298;11.506;2023-06-22T05:43:43;19.17;;;8.55;;
46781;SDS011;32541;46.298;11.506;2023-06-22T05:46:08;17.52;;;8.57;;
46781;SDS011;32541;46.298;11.506;2023-06-22T05:48:33;22.55;;;9.95;;
46781;SDS011;32541;46.298;11.506;2023-06-22T05:50:59;14.32;;;9.15;;
46781;SDS011;32541;46.298;11.506;2023-06-22T05:53:24;23.58;;;8.90;;
46781;SDS011;32541;46.298;11.506;2023-06-22T05:55:50;19.00;;;10.70;;
46781;SDS011;32541;46.298;11.506;2023-06-22T05:58:15;17.25;;;8.82;;
46781;SDS011;32541;46.298;11.506;2023-06-22T06:00:41;16.48;;;9.40;;
46781;SDS011;32541;46.298;11.506;2023-06-22T06:03:08;20.13;;;8.73;;
46781;SDS011;32541;46.298;11.506;2023-06-22T06:05:34;15.70;;;9.38;;
46781;SDS011;32541;46.298;11.506;2023-06-22T06:08:01;20.52;;;10.23;;
46781;SDS011;32541;46.298;11.506;2023-06-22T06:10:27;17.23;;;10.48;;
46781;SDS011;32541;46.298;11.506;2023-06-22T06:12:54;19.02;;;10.05;;
46781;SDS011;32541;46.298;11.506;2023-06-22T06:15:20;17.77;;;8.80;;
46781;SDS011;32541;46.298;11.506;2023-06-22T06:17:46;16.88;;;8.98;;
46781;SDS011;32541;46.298;11.506;2023-06-22T06:20:17;21.33;;;9.52;;
46781;SDS011;32541;46.298;11.506;2023-06-22T06:22:44;24.15;;;9.70;;
46781;SDS011;32541;46.298;11.506;2023-06-22T06:25:10;17.40;;;9.57;;
46781;SDS011;32541;46.298;11.506;2023-06-22T06:27:40;16.35;;;8.93;;
46781;SDS011;32541;46.298;11.506;2023-06-22T06:30:07;19.27;;;10.10;;
46781;SDS011;32541;46.298;11.506;2023-06-22T06:32:32;25.52;;;10.80;;
46781;SDS011;32541;46.298;11.506;2023-06-22T06:34:58;20.15;;;9.73;;
46781;SDS011;32541;46.298;11.506;2023-06-22T06:37:23;19.52;;;11.32;;
46781;SDS011;32541;46.298;11.506;2023-06-22T06:39:48;18.00;;;9.93;;
46781;SDS011;32541;46.298;11.506;2023-06-22T06:42:14;21.83;;;10.20;;
46781;SDS011;32541;46.298;11.506;2023-06-22T06:44:39;22.80;;;10.75;;
46781;SDS011;32541;46.298;11.506;2023-06-22T06:47:05;24.70;;;10.02;;
46781;SDS011;32541;46.298;11.506;2023-06-22T06:49:30;23.42;;;9.55;;
46781;SDS011;32541;46.298;11.506;2023-06-22T06:51:55;23.92;;;11.18;;
46781;SDS011;32541;46.298;11.506;2023-06-22T06:54:21;16.08;;;9.98;;
46781;SDS011;32541;46.298;11.506;2023-06-22T06:56:46;18.33;;;9.60;;
46781;SDS011;32541;46.298;11.506;2023-06-22T06:59:13;21.70;;;11.15;;
46781;SDS011;32541;46.298;11.506;2023-06-22T07:01:41;20.58;;;10.07;;
46781;SDS011;32541;46.298;11.506;2023-06-22T07:04:09;20.70;;;10.23;;
46781;SDS011;32541;46.298;11.506;2023-06-22T07:06:35;23.27;;;9.82;;
46781;SDS011;32541;46.298;11.506;2023-06-22T07:09:00;16.48;;;10.80;;
46781;SDS011;32541;46.298;11.506;2023-06-22T07:11:26;19.20;;;11.15;;
46781;SDS011;32541;46.298;11.506;2023-06-22T07:13:52;28.10;;;11.23;;
46781;SDS011;32541;46.298;11.506;2023-06-22T07:16:17;25.48;;;11.23;;
46781;SDS011;32541;46.298;11.506;2023-06-22T07:18:43;29.23;;;12.75;;
46781;SDS011;32541;46.298;11.506;2023-06-22T07:21:09;27.75;;;10.73;;
46781;SDS011;32541;46.298;11.506;2023-06-22T07:23:35;24.40;;;11.07;;
46781;SDS011;32541;46.298;11.506;2023-06-22T07:26:00;21.05;;;10.52;;
46781;SDS011;32541;46.298;11.506;2023-06-22T07:28:27;19.90;;;11.02;;
46781;SDS011;32541;46.298;11.506;2023-06-22T07:30:56;20.73;;;11.05;;
46781;SDS011;32541;46.298;11.506;2023-06-22T07:33:22;17.77;;;10.88;;
46781;SDS011;32541;46.298;11.506;2023-06-22T07:35:48;21.63;;;11.25;;
46781;SDS011;32541;46.298;11.506;2023-06-22T07:38:16;17.10;;;9.98;;
46781;SDS011;32541;46.298;11.506;2023-06-22T07:40:41;18.92;;;10.70;;
46781;SDS011;32541;46.298;11.506;2023-06-22T07:43:07;22.30;;;10.68;;
46781;SDS011;32541;46.298;11.506;2023-06-22T07:45:32;27.35;;;12.20;;
46781;SDS011;32541;46.298;11.506;2023-06-22T07:48:00;19.60;;;9.77;;
46781;SDS011;32541;46.298;11.506;2023-06-22T07:50:25;20.10;;;10.52;;
46781;SDS011;32541;46.298;11.506;2023-06-22T07:52:51;20.08;;;11.35;;
46781;SDS011;32541;46.298;11.506;2023-06-22T07:55:18;20.63;;;10.43;;
46781;SDS011;32541;46.298;11.506;2023-06-22T07:57:43;24.58;;;10.70;;
46781;SDS011;32541;46.298;11.506;2023-06-22T08:00:09;19.90;;;10.88;;
46781;SDS011;32541;46.298;11.506;2023-06-22T08:02:40;20.48;;;11.07;;
46781;SDS011;32541;46.298;11.506;2023-06-22T08:05:08;20.83;;;10.30;;
46781;SDS011;32541;46.298;11.506;2023-06-22T08:07:37;24.17;;;12.10;;
46781;SDS011;32541;46.298;11.506;2023-06-22T08:10:04;20.10;;;10.55;;
46781;SDS011;32541;46.298;11.506;2023-06-22T08:12:30;23.08;;;10.75;;
46781;SDS011;32541;46.298;11.506;2023-06-22T08:14:56;23.67;;;10.50;;
46781;SDS011;32541;46.298;11.506;2023-06-22T08:17:22;23.13;;;11.05;;
46781;SDS011;32541;46.298;11.506;2023-06-22T08:19:48;15.98;;;10.43;;
46781;SDS011;32541;46.298;11.506;2023-06-22T08:22:15;21.90;;;10.93;;
46781;SDS011;32541;46.298;11.506;2023-06-22T08:24:41;24.05;;;10.73;;
46781;SDS011;32541;46.298;11.506;2023-06-22T08:27:09;20.05;;;11.68;;
46781;SDS011;32541;46.298;11.506;2023-06-22T08:29:38;24.23;;;11.18;;
46781;SDS011;32541;46.298;11.506;2023-06-22T08:32:03;21.85;;;11.50;;
46781;SDS011;32541;46.298;11.506;2023-06-22T08:34:30;20.88;;;9.98;;
46781;SDS011;32541;46.298;11.506;2023-06-22T08:36:55;21.50;;;10.70;;
46781;SDS011;32541;46.298;11.506;2023-06-22T08:39:21;19.95;;;11.35;;
46781;SDS011;32541;46.298;11.506;2023-06-22T08:41:47;21.58;;;10.65;;
46781;SDS011;32541;46.298;11.506;2023-06-22T08:44:13;21.05;;;10.60;;
46781;SDS011;32541;46.298;11.506;2023-06-22T08:46:39;21.50;;;10.13;;
46781;SDS011;32541;46.298;11.506;2023-06-22T08:49:05;17.58;;;9.68;;
46781;SDS011;32541;46.298;11.506;2023-06-22T08:51:32;16.23;;;10.10;;
46781;SDS011;32541;46.298;11.506;2023-06-22T08:53:58;19.98;;;10.48;;
46781;SDS011;32541;46.298;11.506;2023-06-22T08:56:23;29.23;;;11.20;;
46781;SDS011;32541;46.298;11.506;2023-06-22T08:58:49;21.58;;;10.20;;
46781;SDS011;32541;46.298;11.506;2023-06-22T09:01:14;17.55;;;9.65;;
46781;SDS011;32541;46.298;11.506;2023-06-22T09:03:40;17.70;;;8.38;;
46781;SDS011;32541;46.298;11.506;2023-06-22T09:06:06;22.63;;;9.70;;
46781;SDS011;32541;46.298;11.506;2023-06-22T09:08:34;14.80;;;9.00;;
46781;SDS011;32541;46.298;11.506;2023-06-22T09:10:59;17.00;;;9.48;;
46781;SDS011;32541;46.298;11.506;2023-06-22T09:13:25;20.33;;;8.82;;
46781;SDS011;32541;46.298;11.506;2023-06-22T09:15:50;18.70;;;9.73;;
46781;SDS011;32541;46.298;11.506;2023-06-22T09:18:17;18.95;;;9.45;;
46781;SDS011;32541;46.298;11.506;2023-06-22T09:20:43;19.02;;;10.52;;
46781;SDS011;32541;46.298;11.506;2023-06-22T09:23:10;22.90;;;9.77;;
46781;SDS011;32541;46.298;11.506;2023-06-22T09:25:35;23.40;;;9.95;;
46781;SDS011;32541;46.298;11.506;2023-06-22T09:28:01;18.90;;;8.75;;
46781;SDS011;32541;46.298;11.506;2023-06-22T09:30:27;20.58;;;9.73;;
46781;SDS011;32541;46.298;11.506;2023-06-22T09:32:53;20.85;;;9.05;;
46781;SDS011;32541;46.298;11.506;2023-06-22T09:35:19;16.48;;;8.95;;
46781;SDS011;32541;46.298;11.506;2023-06-22T09:37:45;20.90;;;9.82;;
46781;SDS011;32541;46.298;11.506;2023-06-22T09:40:10;19.83;;;9.02;;
46781;SDS011;32541;46.298;11.506;2023-06-22T09:42:38;17.42;;;8.40;;
46781;SDS011;32541;46.298;11.506;2023-06-22T09:45:04;22.30;;;9.10;;
46781;SDS011;32541;46.298;11.506;2023-06-22T09:47:30;21.25;;;9.07;;
46781;SDS011;32541;46.298;11.506;2023-06-22T09:49:55;18.25;;;8.35;;
46781;SDS011;32541;46.298;11.506;2023-06-22T09:52:21;20.77;;;8.65;;
46781;SDS011;32541;46.298;11.506;2023-06-22T09:54:47;19.00;;;8.95;;
46781;SDS011;32541;46.298;11.506;2023-06-22T09:57:12;16.80;;;8.63;;
46781;SDS011;32541;46.298;11.506;2023-06-22T09:59:38;16.67;;;8.55;;
46781;SDS011;32541;46.298;11.506;2023-06-22T10:02:07;15.45;;;7.78;;
46781;SDS011;32541;46.298;11.506;2023-06-22T10:04:33;13.80;;;7.57;;
46781;SDS011;32541;46.298;11.506;2023-06-22T10:06:59;19.13;;;8.30;;
46781;SDS011;32541;46.298;11.506;2023-06-22T10:09:24;16.73;;;8.65;;
46781;SDS011;32541;46.298;11.506;2023-06-22T10:11:50;13.48;;;8.13;;
46781;SDS011;32541;46.298;11.506;2023-06-22T10:14:15;19.80;;;9.27;;
46781;SDS011;32541;46.298;11.506;2023-06-22T10:16:41;17.40;;;8.73;;
46781;SDS011;32541;46.298;11.506;2023-06-22T10:19:07;20.23;;;8.75;;
46781;SDS011;32541;46.298;11.506;2023-06-22T10:21:32;15.25;;;8.60;;
46781;SDS011;32541;46.298;11.506;2023-06-22T10:23:58;17.25;;;8.43;;
46781;SDS011;32541;46.298;11.506;2023-06-22T10:26:26;18.15;;;8.50;;
46781;SDS011;32541;46.298;11.506;2023-06-22T10:28:54;17.13;;;8.95;;
46781;SDS011;32541;46.298;11.506;2023-06-22T10:31:19;21.80;;;9.27;;
46781;SDS011;32541;46.298;11.506;2023-06-22T10:33:45;16.30;;;8.70;;
46781;SDS011;32541;46.298;11.506;2023-06-22T10:36:10;21.30;;;10.05;;
46781;SDS011;32541;46.298;11.506;2023-06-22T10:38:36;16.38;;;8.52;;
46781;SDS011;32541;46.298;11.506;2023-06-22T10:41:01;15.02;;;8.57;;
46781;SDS011;32541;46.298;11.506;2023-06-22T10:43:27;19.67;;;8.32;;
46781;SDS011;32541;46.298;11.506;2023-06-22T10:45:53;19.65;;;7.57;;
46781;SDS011;32541;46.298;11.506;2023-06-22T10:48:18;17.70;;;8.00;;
46781;SDS011;32541;46.298;11.506;2023-06-22T10:50:44;21.60;;;7.75;;
46781;SDS011;32541;46.298;11.506;2023-06-22T10:53:09;14.05;;;7.80;;
46781;SDS011;32541;46.298;11.506;2023-06-22T10:55:34;16.35;;;7.47;;
46781;SDS011;32541;46.298;11.506;2023-06-22T10:58:00;18.52;;;7.03;;
46781;SDS011;32541;46.298;11.506;2023-06-22T11:00:26;22.00;;;7.50;;
46781;SDS011;32541;46.298;11.506;2023-06-22T11:02:51;15.82;;;6.78;;
46781;SDS011;32541;46.298;11.506;2023-06-22T11:05:16;18.30;;;8.00;;
46781;SDS011;32541;46.298;11.506;2023-06-22T11:07:42;23.83;;;7.15;;
46781;SDS011;32541;46.298;11.506;2023-06-22T11:10:09;20.48;;;7.03;;
46781;SDS011;32541;46.298;11.506;2023-06-22T11:12:34;16.90;;;6.78;;
46781;SDS011;32541;46.298;11.506;2023-06-22T11:15:00;14.77;;;6.50;;
46781;SDS011;32541;46.298;11.506;2023-06-22T11:17:26;17.63;;;6.95;;
46781;SDS011;32541;46.298;11.506;2023-06-22T11:19:51;14.52;;;6.38;;
46781;SDS011;32541;46.298;11.506;2023-06-22T11:22:17;16.17;;;6.38;;
46781;SDS011;32541;46.298;11.506;2023-06-22T11:24:42;18.20;;;6.30;;
46781;SDS011;32541;46.298;11.506;2023-06-22T11:27:07;20.50;;;6.40;;
46781;SDS011;32541;46.298;11.506;2023-06-22T11:29:33;15.02;;;6.60;;
46781;SDS011;32541;46.298;11.506;2023-06-22T11:31:58;17.67;;;8.32;;
46781;SDS011;32541;46.298;11.506;2023-06-22T11:34:24;16.40;;;7.13;;
46781;SDS011;32541;46.298;11.506;2023-06-22T11:36:49;17.95;;;6.45;;
46781;SDS011;32541;46.298;11.506;2023-06-22T11:39:15;14.75;;;7.05;;
46781;SDS011;32541;46.298;11.506;2023-06-22T11:41:41;20.02;;;7.57;;
46781;SDS011;32541;46.298;11.506;2023-06-22T11:44:07;14.70;;;7.13;;
46781;SDS011;32541;46.298;11.506;2023-06-22T11:46:32;18.67;;;7.50;;
46781;SDS011;32541;46.298;11.506;2023-06-22T11:48:58;18.10;;;7.85;;
46781;SDS011;32541;46.298;11.506;2023-06-22T11:51:24;16.67;;;7.22;;
46781;SDS011;32541;46.298;11.506;2023-06-22T11:53:51;14.82;;;6.35;;
46781;SDS011;32541;46.298;11.506;2023-06-22T11:56:17;21.65;;;6.95;;
46781;SDS011;32541;46.298;11.506;2023-06-22T11:58:42;28.02;;;7.22;;
46781;SDS011;32541;46.298;11.506;2023-06-22T12:01:08;17.45;;;6.63;;
46781;SDS011;32541;46.298;11.506;2023-06-22T12:03:33;15.88;;;6.97;;
46781;SDS011;32541;46.298;11.506;2023-06-22T12:05:59;21.17;;;7.53;;
46781;SDS011;32541;46.298;11.506;2023-06-22T12:08:24;16.10;;;6.78;;
46781;SDS011;32541;46.298;11.506;2023-06-22T12:10:50;12.95;;;6.22;;
46781;SDS011;32541;46.298;11.506;2023-06-22T12:13:15;20.92;;;7.03;;
46781;SDS011;32541;46.298;11.506;2023-06-22T12:15:41;20.02;;;7.03;;
46781;SDS011;32541;46.298;11.506;2023-06-22T12:18:06;15.93;;;6.40;;
46781;SDS011;32541;46.298;11.506;2023-06-22T12:20:33;16.58;;;5.93;;
46781;SDS011;32541;46.298;11.506;2023-06-22T12:22:59;20.83;;;7.82;;
46781;SDS011;32541;46.298;11.506;2023-06-22T12:25:24;20.30;;;6.93;;
46781;SDS011;32541;46.298;11.506;2023-06-22T12:27:50;15.75;;;6.38;;
46781;SDS011;32541;46.298;11.506;2023-06-22T12:30:15;23.35;;;6.78;;
46781;SDS011;32541;46.298;11.506;2023-06-22T12:32:41;24.38;;;6.22;;
46781;SDS011;32541;46.298;11.506;2023-06-22T12:35:07;20.17;;;6.00;;
46781;SDS011;32541;46.298;11.506;2023-06-22T12:37:39;16.07;;;5.50;;
46781;SDS011;32541;46.298;11.506;2023-06-22T12:40:06;26.63;;;6.70;;
46781;SDS011;32541;46.298;11.506;2023-06-22T12:42:32;22.58;;;6.88;;
46781;SDS011;32541;46.298;11.506;2023-06-22T12:44:58;18.52;;;5.75;;
46781;SDS011;32541;46.298;11.506;2023-06-22T12:47:23;23.88;;;5.40;;
46781;SDS011;32541;46.298;11.506;2023-06-22T12:49:48;17.85;;;5.25;;
46781;SDS011;32541;46.298;11.506;2023-06-22T12:52:15;29.80;;;6.93;;
46781;SDS011;32541;46.298;11.506;2023-06-22T12:54:41;23.23;;;5.55;;
46781;SDS011;32541;46.298;11.506;2023-06-22T12:57:06;26.10;;;5.82;;
46781;SDS011;32541;46.298;11.506;2023-06-22T12:59:32;19.95;;;5.13;;
46781;SDS011;32541;46.298;11.506;2023-06-22T13:01:57;24.75;;;6.70;;
46781;SDS011;32541;46.298;11.506;2023-06-22T13:04:22;25.60;;;6.50;;
46781;SDS011;32541;46.298;11.506;2023-06-22T13:06:48;15.77;;;5.32;;
46781;SDS011;32541;46.298;11.506;2023-06-22T13:09:14;21.55;;;6.30;;
46781;SDS011;32541;46.298;11.506;2023-06-22T13:11:40;18.90;;;5.93;;
46781;SDS011;32541;46.298;11.506;2023-06-22T13:14:06;21.75;;;5.45;;
46781;SDS011;32541;46.298;11.506;2023-06-22T13:16:33;26.63;;;7.47;;
46781;SDS011;32541;46.298;11.506;2023-06-22T13:18:58;24.92;;;6.03;;
46781;SDS011;32541;46.298;11.506;2023-06-22T13:21:25;24.45;;;5.93;;
46781;SDS011;32541;46.298;11.506;2023-06-22T13:23:51;22.20;;;6.57;;
46781;SDS011;32541;46.298;11.506;2023-06-22T13:26:17;24.52;;;6.18;;
46781;SDS011;32541;46.298;11.506;2023-06-22T13:28:43;20.45;;;5.28;;
46781;SDS011;32541;46.298;11.506;2023-06-22T13:31:09;19.80;;;5.38;;
46781;SDS011;32541;46.298;11.506;2023-06-22T13:33:34;26.17;;;6.32;;
46781;SDS011;32541;46.298;11.506;2023-06-22T13:36:00;29.88;;;6.25;;
46781;SDS011;32541;46.298;11.506;2023-06-22T13:38:25;18.15;;;5.50;;
46781;SDS011;32541;46.298;11.506;2023-06-22T13:40:51;24.30;;;6.45;;
46781;SDS011;32541;46.298;11.506;2023-06-22T13:43:20;28.48;;;5.43;;
46781;SDS011;32541;46.298;11.506;2023-06-22T13:45:46;24.55;;;5.07;;
46781;SDS011;32541;46.298;11.506;2023-06-22T13:48:11;25.65;;;6.03;;
46781;SDS011;32541;46.298;11.506;2023-06-22T13:50:37;19.75;;;5.70;;
46781;SDS011;32541;46.298;11.506;2023-06-22T13:53:02;25.00;;;5.75;;
46781;SDS011;32541;46.298;11.506;2023-06-22T13:55:28;22.08;;;5.90;;
46781;SDS011;32541;46.298;11.506;2023-06-22T13:57:53;20.92;;;5.78;;
46781;SDS011;32541;46.298;11.506;2023-06-22T14:00:18;23.05;;;5.68;;
46781;SDS011;32541;46.298;11.506;2023-06-22T14:02:44;18.20;;;5.63;;
46781;SDS011;32541;46.298;11.506;2023-06-22T14:05:10;16.50;;;5.72;;
46781;SDS011;32541;46.298;11.506;2023-06-22T14:07:36;20.90;;;6.07;;
46781;SDS011;32541;46.298;11.506;2023-06-22T14:10:02;13.85;;;5.10;;
46781;SDS011;32541;46.298;11.506;2023-06-22T14:12:28;21.13;;;6.18;;
46781;SDS011;32541;46.298;11.506;2023-06-22T14:14:54;21.92;;;6.30;;
46781;SDS011;32541;46.298;11.506;2023-06-22T14:17:19;21.65;;;5.55;;
46781;SDS011;32541;46.298;11.506;2023-06-22T14:19:49;17.00;;;6.57;;
46781;SDS011;32541;46.298;11.506;2023-06-22T14:22:17;18.85;;;5.63;;
46781;SDS011;32541;46.298;11.506;2023-06-22T14:24:43;21.67;;;6.47;;